Time;durP1;ratioP1;P1;durP2;ratioP2;P2;SDS_P1;SDS_P2;PMS_P1;PMS_P2;Temp;Humidity;BMP_temperature;BMP_pressure;BME280_temperature;BME280_humidity;BME280_pressure;Samples;Min_cycle;Max_cycle;Signal;HPM_P1;HPM_P2
2023/07/31 00:02:21;;;;;;;899.07;825.77;;;;;;;17.24;93.75;99367.03;5042348;28;20175;-72
2023/07/31 00:04:46;;;;;;;819.38;758.95;;;;;;;17.27;93.73;99360.88;5042605;28;20282;-72
2023/07/31 00:07:12;;;;;;;1023.80;929.38;;;;;;;17.31;93.04;99353.59;5042125;28;20061;-71
2023/07/31 00:09:37;;;;;;;1008.88;927.47;;;;;;;17.14;94.10;99363.44;5042305;28;20486;-71
2023/07/31 00:12:03;;;;;;;998.93;904.70;;;;;;;17.22;93.33;99369.28;5042284;28;20119;-72
2023/07/31 00:14:28;;;;;;;940.22;863.05;;;;;;;17.25;93.76;99360.38;5042337;28;20254;-71
2023/07/31 00:16:53;;;;;;;705.30;655.10;;;;;;;17.28;93.93;99362.50;5045088;28;20047;-71
2023/07/31 00:19:19;;;;;;;1032.65;946.67;;;;;;;17.23;93.33;99357.13;5046040;28;20057;-71
2023/07/31 00:21:44;;;;;;;972.83;891.20;;;;;;;17.00;94.23;99348.94;5045861;28;20041;-71
2023/07/31 00:24:10;;;;;;;753.90;698.50;;;;;;;17.15;94.31;99354.03;5045908;28;20068;-71
2023/07/31 00:26:35;;;;;;;738.28;684.92;;;;;;;17.10;94.42;99356.09;5045739;28;20028;-72
2023/07/31 00:29:00;;;;;;;704.63;654.10;;;;;;;17.25;94.21;99352.13;5045330;28;20029;-71
2023/07/31 00:31:26;;;;;;;697.25;646.20;;;;;;;17.24;93.85;99342.25;5045810;28;20822;-71
2023/07/31 00:33:51;;;;;;;954.17;876.95;;;;;;;17.25;93.73;99352.13;5045500;28;20044;-71
2023/07/31 00:36:17;;;;;;;881.80;814.67;;;;;;;17.30;92.69;99338.22;5045595;28;20057;-72
2023/07/31 00:38:43;;;;;;;763.47;709.10;;;;;;;17.43;92.91;99352.19;5045433;28;20048;-72
2023/07/31 00:41:08;;;;;;;725.17;674.30;;;;;;;17.22;93.48;99350.00;5045485;28;20044;-71
2023/07/31 00:43:33;;;;;;;808.47;747.03;;;;;;;17.29;93.23;99360.56;5045818;28;20037;-71
2023/07/31 00:45:59;;;;;;;731.37;678.13;;;;;;;17.29;92.96;99346.81;5045955;28;20277;-72
2023/07/31 00:48:25;;;;;;;705.78;652.88;;;;;;;17.32;93.04;99346.16;5045534;28;20740;-71
2023/07/31 00:50:50;;;;;;;928.50;856.20;;;;;;;17.32;92.51;99349.72;5045141;28;20486;-71
2023/07/31 00:53:16;;;;;;;848.95;786.03;;;;;;;17.24;93.04;99342.25;5045360;28;20083;-71
2023/07/31 00:55:42;;;;;;;748.38;691.67;;;;;;;17.24;92.73;99339.50;5045608;28;20028;-71
2023/07/31 00:58:08;;;;;;;825.60;759.80;;;;;;;16.99;93.71;99344.56;5045183;28;20116;-72
2023/07/31 01:00:33;;;;;;;892.77;810.30;;;;;;;17.09;93.25;99344.28;5044980;28;20045;-73
2023/07/31 01:02:59;;;;;;;709.65;659.30;;;;;;;17.19;93.26;99343.19;5045227;28;20774;-71
2023/07/31 01:05:33;;;;;;;693.50;644.80;;;;;;;17.25;93.22;99343.84;5045194;28;20502;-73
2023/07/31 01:08:11;;;;;;;696.95;647.72;;;;;;;17.33;92.20;99359.59;5045540;28;20049;-71
2023/07/31 01:11:02;;;;;;;982.13;899.92;;;;;;;17.16;92.02;99346.59;5045151;28;20071;-72
2023/07/31 01:13:28;;;;;;;940.95;869.47;;;;;;;17.22;92.58;99353.59;5045162;28;20037;-71
2023/07/31 01:15:53;;;;;;;915.22;842.40;;;;;;;17.22;92.35;99355.53;5044732;28;20045;-73
2023/07/31 01:18:19;;;;;;;962.33;885.80;;;;;;;17.21;92.11;99356.63;5044908;28;20043;-72
2023/07/31 01:20:50;;;;;;;1010.67;931.17;;;;;;;17.30;91.96;99343.72;5044705;28;21142;-71
2023/07/31 01:23:34;;;;;;;1034.25;943.83;;;;;;;17.17;91.16;99341.91;5045324;28;20269;-71
2023/07/31 01:26:12;;;;;;;1048.97;943.75;;;;;;;16.99;92.26;99344.56;5044696;28;20051;-72
2023/07/31 01:29:01;;;;;;;871.92;808.35;;;;;;;17.12;92.22;99343.69;5044668;28;20064;-73
2023/07/31 01:31:29;;;;;;;830.88;767.30;;;;;;;17.15;91.51;99333.94;5044557;28;20040;-72
2023/07/31 01:33:57;;;;;;;1060.82;973.83;;;;;;;17.15;90.93;99344.97;5044468;28;20029;-73
2023/07/31 01:36:23;;;;;;;839.78;777.17;;;;;;;17.29;91.25;99347.59;5044830;28;20771;-72
2023/07/31 01:38:50;;;;;;;982.03;899.55;;;;;;;17.06;91.56;99355.94;5044331;28;20163;-73
2023/07/31 01:41:17;;;;;;;1036.80;955.03;;;;;;;17.13;91.53;99353.56;5044940;28;20049;-71
2023/07/31 01:43:42;;;;;;;839.67;779.45;;;;;;;17.20;91.31;99338.50;5044749;28;20037;-72
2023/07/31 01:46:08;;;;;;;1041.77;950.23;;;;;;;17.15;90.62;99342.22;5043925;28;20049;-72
2023/07/31 01:48:35;;;;;;;1014.58;932.75;;;;;;;17.13;90.87;99339.78;5043891;28;20269;-72
2023/07/31 01:51:01;;;;;;;890.85;822.83;;;;;;;17.15;91.00;99348.53;5043992;28;20163;-72
2023/07/31 01:53:27;;;;;;;1022.75;931.42;;;;;;;17.15;90.27;99332.00;5044263;28;20037;-72
2023/07/31 01:55:52;;;;;;;961.50;885.37;;;;;;;17.10;90.20;99340.41;5044109;28;20186;-73
2023/07/31 01:58:17;;;;;;;1005.20;925.43;;;;;;;17.10;90.73;99340.41;5044149;28;20262;-72
2023/07/31 02:00:42;;;;;;;1034.87;943.33;;;;;;;17.12;90.77;99337.31;5044405;28;20714;-73
2023/07/31 02:03:08;;;;;;;973.63;895.22;;;;;;;17.18;89.76;99332.50;5043656;28;20278;-73
2023/07/31 02:05:33;;;;;;;882.75;816.10;;;;;;;17.13;90.11;99342.53;5044132;28;20111;-72
2023/07/31 02:07:58;;;;;;;858.45;792.42;;;;;;;17.15;89.82;99325.69;5043995;28;20072;-72
2023/07/31 02:10:23;;;;;;;986.23;908.70;;;;;;;17.07;90.00;99329.19;5043448;28;20033;-73
2023/07/31 02:12:49;;;;;;;1022.17;933.77;;;;;;;17.10;89.68;99325.81;5044301;28;20274;-73
2023/07/31 02:15:14;;;;;;;921.70;853.07;;;;;;;17.12;89.58;99327.16;5044174;28;21286;-74
2023/07/31 02:17:39;;;;;;;805.08;742.75;;;;;;;17.23;88.93;99335.09;5044076;28;20266;-76
2023/07/31 02:20:05;;;;;;;916.77;849.23;;;;;;;17.25;88.81;99324.56;5043812;28;20132;-75
2023/07/31 02:22:31;;;;;;;918.08;842.95;;;;;;;17.24;88.56;99320.22;5043447;28;20254;-74
2023/07/31 02:24:56;;;;;;;845.47;780.25;;;;;;;17.18;88.17;99313.22;5044196;28;20039;-75
2023/07/31 02:27:24;;;;;;;890.60;825.40;;;;;;;17.20;88.13;99317.28;5044198;28;20082;-75
2023/07/31 02:29:49;;;;;;;913.20;845.20;;;;;;;17.17;88.63;99314.38;5043786;28;20300;-76
2023/07/31 02:32:14;;;;;;;748.95;696.17;;;;;;;17.24;88.08;99317.47;5026730;28;20029;-76
2023/07/31 02:34:39;;;;;;;844.30;783.93;;;;;;;17.41;87.57;99333.19;5044173;28;20036;-75
2023/07/31 02:37:05;;;;;;;802.75;744.28;;;;;;;17.42;87.46;99320.22;5044207;28;20272;-75
2023/07/31 02:39:30;;;;;;;802.70;749.47;;;;;;;17.35;87.36;99315.22;5043409;28;20043;-75
2023/07/31 02:41:55;;;;;;;967.80;886.77;;;;;;;17.37;87.11;99329.47;5044063;28;20037;-75
2023/07/31 02:44:21;;;;;;;896.55;828.25;;;;;;;17.37;86.52;99319.25;5043859;28;20337;-75
2023/07/31 02:46:46;;;;;;;809.20;750.83;;;;;;;17.46;86.45;99327.53;5043607;28;20082;-75
2023/07/31 02:49:11;;;;;;;890.33;817.57;;;;;;;17.38;86.20;99317.31;5043288;28;20374;-76
2023/07/31 02:51:36;;;;;;;710.87;657.07;;;;;;;17.26;86.57;99306.94;5043451;28;21380;-75
2023/07/31 02:54:02;;;;;;;563.77;524.67;;;;;;;17.35;86.52;99323.47;5043620;28;20307;-75
2023/07/31 02:56:27;;;;;;;643.65;593.47;;;;;;;17.29;86.28;99311.78;5043315;28;20294;-75
2023/07/31 02:58:52;;;;;;;702.00;648.37;;;;;;;17.14;86.48;99318.56;5043570;28;20132;-75
2023/07/31 03:01:18;;;;;;;721.50;666.72;;;;;;;17.28;86.61;99304.66;5043664;28;20295;-75
2023/07/31 03:03:43;;;;;;;816.93;752.87;;;;;;;17.19;85.86;99309.34;5043971;28;20410;-75
2023/07/31 03:06:08;;;;;;;872.17;793.50;;;;;;;17.19;86.24;99309.34;5043527;28;20272;-75
2023/07/31 03:08:33;;;;;;;735.03;682.70;;;;;;;17.30;86.22;99310.66;5043735;28;20265;-75
2023/07/31 03:10:59;;;;;;;767.33;712.83;;;;;;;17.36;85.55;99308.56;5042912;28;20029;-77
2023/07/31 03:13:24;;;;;;;727.92;670.60;;;;;;;17.24;85.62;99306.44;5043636;28;20265;-75
2023/07/31 03:15:50;;;;;;;797.83;727.67;;;;;;;17.15;85.44;99304.47;5044167;28;20646;-76
2023/07/31 03:18:15;;;;;;;698.75;642.15;;;;;;;17.10;85.98;99301.84;5043721;28;20270;-76
2023/07/31 03:20:44;;;;;;;721.70;665.67;;;;;;;17.19;86.34;99279.06;5043555;28;20037;-76
2023/07/31 03:23:09;;;;;;;518.30;482.70;;;;;;;17.28;85.55;99293.66;5043562;28;20270;-76
2023/07/31 03:25:34;;;;;;;583.97;544.97;;;;;;;17.26;85.62;99287.66;5043968;28;20572;-76
2023/07/31 03:28:00;;;;;;;505.10;470.50;;;;;;;17.28;86.21;99290.88;5043833;28;20037;-75
2023/07/31 03:30:25;;;;;;;751.80;694.25;;;;;;;17.32;85.74;99297.38;5042937;28;20634;-76
2023/07/31 03:32:50;;;;;;;737.70;681.35;;;;;;;17.25;85.21;99294.28;5043365;28;20044;-75
2023/07/31 03:35:16;;;;;;;632.93;587.20;;;;;;;17.16;86.01;99294.28;5043082;28;20986;-75
2023/07/31 03:37:41;;;;;;;579.25;535.33;;;;;;;17.19;86.39;99290.06;5043408;28;20254;-76
2023/07/31 03:40:07;;;;;;;759.67;701.43;;;;;;;17.27;85.72;99279.06;5042827;28;20037;-75
2023/07/31 03:42:32;;;;;;;624.67;581.67;;;;;;;17.18;86.28;99283.75;5043160;28;20262;-76
2023/07/31 03:44:57;;;;;;;579.93;541.30;;;;;;;17.26;85.57;99287.66;5043380;28;20035;-75
2023/07/31 03:47:22;;;;;;;568.03;530.53;;;;;;;17.15;86.35;99278.88;5043657;28;21001;-75
2023/07/31 03:49:48;;;;;;;727.85;668.90;;;;;;;17.22;86.19;99292.16;5043904;28;20120;-76
2023/07/31 03:52:13;;;;;;;673.50;622.65;;;;;;;17.26;85.89;99288.47;5046865;28;20064;-76
2023/07/31 03:54:38;;;;;;;805.67;740.03;;;;;;;17.14;86.02;99286.34;5037701;28;20167;-75
2023/07/31 03:57:04;;;;;;;709.33;658.90;;;;;;;17.27;86.13;99283.75;5047298;28;20835;-76
2023/07/31 03:59:29;;;;;;;601.00;559.10;;;;;;;17.48;85.51;99278.44;5046755;28;20262;-76
2023/07/31 04:01:54;;;;;;;562.77;524.57;;;;;;;17.42;84.98;99278.91;5047234;28;20517;-76
2023/07/31 04:04:20;;;;;;;667.53;616.90;;;;;;;17.34;85.05;99283.28;5047097;28;20360;-76
2023/07/31 04:06:45;;;;;;;591.17;547.87;;;;;;;17.38;85.17;99276.00;5046565;28;20254;-76
2023/07/31 04:09:10;;;;;;;659.13;609.00;;;;;;;17.47;85.12;99276.00;5045562;28;20258;-76
2023/07/31 04:11:35;;;;;;;720.23;667.03;;;;;;;17.58;84.98;99273.72;5046662;28;20552;-76
2023/07/31 04:14:01;;;;;;;726.72;668.55;;;;;;;17.48;84.84;99277.63;5047080;28;20261;-75
2023/07/31 04:16:26;;;;;;;589.75;543.47;;;;;;;17.31;85.78;99276.47;5047170;28;20072;-76
2023/07/31 04:18:51;;;;;;;461.92;431.10;;;;;;;17.49;85.62;99279.25;5046468;28;20560;-75
2023/07/31 04:21:17;;;;;;;509.40;474.67;;;;;;;17.53;85.24;99280.22;5046223;28;20041;-76
2023/07/31 04:23:42;;;;;;;389.17;364.75;;;;;;;17.42;85.90;99279.72;5046831;28;20328;-76
2023/07/31 04:26:08;;;;;;;757.42;701.13;;;;;;;17.55;85.87;99280.72;5046682;28;20040;-75
2023/07/31 04:28:33;;;;;;;637.43;590.37;;;;;;;17.52;86.10;99275.84;5046233;28;20116;-75
2023/07/31 04:30:58;;;;;;;574.25;528.42;;;;;;;17.54;85.35;99265.31;5046274;28;20262;-76
2023/07/31 04:33:24;;;;;;;555.45;514.28;;;;;;;17.36;86.21;99281.00;5046699;28;20073;-76
2023/07/31 04:35:54;;;;;;;621.90;573.97;;;;;;;17.58;86.02;99260.75;5046411;28;20037;-76
2023/07/31 04:38:20;;;;;;;435.35;405.83;;;;;;;17.58;85.67;99260.75;5046302;28;20064;-76
2023/07/31 04:40:45;;;;;;;653.92;607.28;;;;;;;17.67;85.55;99265.47;5045630;28;20037;-75
2023/07/31 04:43:11;;;;;;;510.02;475.17;;;;;;;17.66;85.38;99263.81;5046055;28;20048;-75
2023/07/31 04:45:36;;;;;;;689.23;638.03;;;;;;;17.76;84.55;99260.75;5045812;28;20389;-75
2023/07/31 04:48:01;;;;;;;619.00;572.40;;;;;;;17.71;85.17;99252.66;5045722;28;20262;-72
2023/07/31 04:50:27;;;;;;;624.65;578.00;;;;;;;17.74;85.83;99257.50;5045199;28;20666;-72
2023/07/31 04:52:52;;;;;;;654.27;607.30;;;;;;;17.74;85.87;99268.53;5045804;28;20932;-72
2023/07/31 04:55:17;;;;;;;819.60;752.80;;;;;;;17.47;86.65;99253.97;5045514;28;20254;-72
2023/07/31 04:57:42;;;;;;;524.80;487.57;;;;;;;17.55;87.48;99244.88;5045605;28;20128;-72
2023/07/31 05:00:08;;;;;;;569.73;527.50;;;;;;;17.65;86.94;99248.44;5044894;28;20296;-72
2023/07/31 05:02:33;;;;;;;412.83;385.35;;;;;;;17.69;86.85;99252.16;5044279;28;20382;-72
2023/07/31 05:04:59;;;;;;;723.28;665.53;;;;;;;17.57;86.86;99247.31;5045543;28;20057;-72
2023/07/31 05:07:24;;;;;;;623.97;578.87;;;;;;;17.62;87.43;99239.69;5045630;28;20056;-73
2023/07/31 05:09:49;;;;;;;473.87;441.27;;;;;;;17.68;87.47;99242.25;5044545;28;20754;-73
2023/07/31 05:12:14;;;;;;;460.15;428.98;;;;;;;17.77;86.66;99240.31;5045573;28;20346;-73
2023/07/31 05:14:40;;;;;;;741.95;683.28;;;;;;;17.75;86.56;99242.59;5045281;28;20541;-72
2023/07/31 05:17:05;;;;;;;648.97;599.70;;;;;;;17.86;86.71;99229.25;5044987;28;20478;-72
2023/07/31 05:19:30;;;;;;;611.85;569.45;;;;;;;17.95;86.23;99229.25;5044466;28;20336;-72
2023/07/31 05:21:56;;;;;;;409.45;383.50;;;;;;;18.00;85.96;99223.56;5044785;28;20041;-73
2023/07/31 05:24:21;;;;;;;504.73;472.47;;;;;;;17.95;86.11;99230.06;5044808;28;20471;-72
2023/07/31 05:26:46;;;;;;;709.13;655.30;;;;;;;17.78;86.75;99230.09;5044963;28;20250;-72
2023/07/31 05:29:11;;;;;;;746.77;686.43;;;;;;;17.72;87.29;99223.94;5044481;28;20332;-72
2023/07/31 05:31:38;;;;;;;676.43;625.10;;;;;;;17.82;87.09;99220.84;5044671;28;20884;-72
2023/07/31 05:34:03;;;;;;;481.45;449.75;;;;;;;18.01;86.23;99211.41;5044947;28;20254;-73
2023/07/31 05:36:29;;;;;;;623.45;579.78;;;;;;;18.11;86.18;99220.44;5044448;28;20025;-72
2023/07/31 05:38:54;;;;;;;607.50;565.60;;;;;;;18.08;85.61;99217.22;5044710;28;20110;-72
2023/07/31 05:41:19;;;;;;;661.20;612.20;;;;;;;17.90;86.53;99221.16;5044349;28;20365;-72
2023/07/31 05:43:45;;;;;;;676.90;627.35;;;;;;;17.94;86.44;99208.34;5044620;28;20292;-72
2023/07/31 05:46:11;;;;;;;732.42;676.28;;;;;;;17.91;86.81;99223.59;5044445;28;21246;-72
2023/07/31 05:48:37;;;;;;;641.08;594.97;;;;;;;17.94;86.95;99205.59;5044216;28;20037;-76
2023/07/31 05:51:02;;;;;;;674.22;624.88;;;;;;;17.97;86.45;99204.91;5044663;28;20149;-76
2023/07/31 05:53:28;;;;;;;613.53;569.25;;;;;;;17.90;86.86;99196.34;5045243;28;20039;-76
2023/07/31 05:55:53;;;;;;;619.03;574.35;;;;;;;17.94;86.60;99200.06;5044639;28;20037;-76
2023/07/31 05:58:18;;;;;;;660.73;611.97;;;;;;;17.91;86.36;99189.69;5044970;28;20087;-76
2023/07/31 06:00:43;;;;;;;557.37;518.13;;;;;;;17.81;87.11;99188.91;5044206;28;21644;-75
2023/07/31 06:03:09;;;;;;;607.25;559.22;;;;;;;17.80;87.39;99183.69;5044412;28;20274;-75
2023/07/31 06:05:34;;;;;;;525.25;488.90;;;;;;;17.83;87.49;99192.16;5044403;28;20040;-76
2023/07/31 06:08:00;;;;;;;484.70;452.17;;;;;;;17.77;87.80;99193.47;5044236;28;20035;-75
2023/07/31 06:10:25;;;;;;;646.35;594.97;;;;;;;17.89;87.32;99186.44;5044262;28;20037;-76
2023/07/31 06:12:51;;;;;;;590.25;548.15;;;;;;;17.98;86.81;99187.22;5044385;28;20090;-75
2023/07/31 06:15:17;;;;;;;599.45;557.03;;;;;;;17.97;86.31;99177.34;5044272;28;20037;-76
2023/07/31 06:17:43;;;;;;;670.13;622.10;;;;;;;17.98;86.17;99167.91;5044454;28;20029;-75
2023/07/31 06:20:08;;;;;;;693.78;642.50;;;;;;;18.17;85.75;99173.09;5043320;28;20029;-76
2023/07/31 06:22:33;;;;;;;689.97;642.17;;;;;;;18.29;85.45;99169.63;5044002;28;20041;-76
2023/07/31 06:24:59;;;;;;;614.30;571.60;;;;;;;18.28;85.08;99164.44;5043665;28;20032;-75
2023/07/31 06:27:24;;;;;;;619.35;576.55;;;;;;;18.19;85.47;99178.25;5044063;28;20493;-76
2023/07/31 06:29:50;;;;;;;571.10;531.58;;;;;;;18.19;85.50;99173.56;5043737;28;20043;-75
2023/07/31 06:32:15;;;;;;;558.95;522.83;;;;;;;18.29;85.08;99168.81;5043920;28;20040;-75
2023/07/31 06:34:40;;;;;;;581.33;543.47;;;;;;;18.28;85.04;99176.28;5043813;28;20037;-76
2023/07/31 06:37:06;;;;;;;603.77;562.97;;;;;;;18.19;85.06;99167.22;5025669;28;20037;-74
2023/07/31 06:39:31;;;;;;;684.53;634.00;;;;;;;18.18;85.38;99176.66;5043518;28;20250;-76
2023/07/31 06:41:56;;;;;;;455.95;430.02;;;;;;;18.15;86.14;99160.72;5043283;28;20175;-75
2023/07/31 06:44:21;;;;;;;645.27;598.17;;;;;;;18.17;86.48;99170.34;5034362;28;20041;-75
2023/07/31 06:46:47;;;;;;;759.37;701.90;;;;;;;18.11;87.04;99162.53;5043898;28;20262;-74
2023/07/31 06:49:12;;;;;;;676.90;627.87;;;;;;;18.11;87.28;99170.81;5043327;28;20258;-74
2023/07/31 06:51:38;;;;;;;556.03;518.63;;;;;;;18.09;87.28;99176.66;5043579;28;20371;-75
2023/07/31 06:54:03;;;;;;;774.95;715.65;;;;;;;18.14;87.38;99179.25;5043414;28;20036;-76
2023/07/31 06:56:29;;;;;;;531.08;491.63;;;;;;;17.99;87.97;99166.81;5043887;28;21221;-76
2023/07/31 06:58:55;;;;;;;682.15;628.92;;;;;;;18.04;87.78;99172.13;5042240;28;20663;-74
2023/07/31 07:01:21;;;;;;;653.30;605.92;;;;;;;17.93;87.87;99166.19;5043122;28;20123;-72
2023/07/31 07:03:46;;;;;;;793.38;731.95;;;;;;;17.90;88.26;99174.31;5043084;28;20119;-74
2023/07/31 07:06:11;;;;;;;587.40;543.88;;;;;;;17.90;88.83;99169.56;5043304;28;20123;-74
2023/07/31 07:08:37;;;;;;;629.20;582.20;;;;;;;17.97;88.00;99171.84;5042406;28;20036;-75
2023/07/31 07:11:02;;;;;;;790.80;729.90;;;;;;;17.89;88.62;99169.91;5042987;28;20033;-74
2023/07/31 07:13:27;;;;;;;732.50;676.73;;;;;;;17.89;88.79;99175.41;5043565;28;20286;-74
2023/07/31 07:15:52;;;;;;;692.23;637.97;;;;;;;17.72;89.27;99177.09;5042810;28;20270;-75
2023/07/31 07:18:18;;;;;;;703.92;651.63;;;;;;;17.82;88.96;99165.72;5042269;28;20293;-75
2023/07/31 07:20:49;;;;;;;667.65;618.45;;;;;;;17.96;88.25;99167.44;5042096;28;20040;-76
2023/07/31 07:23:14;;;;;;;740.90;680.17;;;;;;;17.88;88.80;99166.34;5039514;28;20082;-76
2023/07/31 07:25:39;;;;;;;773.35;715.58;;;;;;;17.87;89.38;99172.19;5042722;28;20037;-75
2023/07/31 07:28:05;;;;;;;764.03;700.80;;;;;;;17.93;89.00;99179.97;5043151;28;20136;-76
2023/07/31 07:30:30;;;;;;;731.80;679.23;;;;;;;17.82;89.37;99176.72;5042118;28;20770;-75
2023/07/31 07:32:55;;;;;;;778.50;719.07;;;;;;;17.92;89.78;99178.31;5042557;28;20311;-76
2023/07/31 07:35:21;;;;;;;748.30;690.25;;;;;;;17.94;89.50;99167.78;5042632;28;20266;-74
2023/07/31 07:37:49;;;;;;;738.78;683.22;;;;;;;18.03;89.10;99165.00;5043169;28;20052;-74
2023/07/31 07:40:15;;;;;;;793.60;731.50;;;;;;;18.00;89.33;99160.13;5042454;28;20116;-75
2023/07/31 07:42:40;;;;;;;887.20;818.65;;;;;;;18.14;89.36;99170.16;5043412;28;20124;-75
2023/07/31 07:45:06;;;;;;;686.37;637.07;;;;;;;18.17;88.86;99164.81;5043797;28;20057;-75
2023/07/31 07:47:31;;;;;;;911.08;830.67;;;;;;;18.00;89.40;99164.84;5042717;28;20754;-74
2023/07/31 07:49:56;;;;;;;782.97;721.90;;;;;;;17.83;90.12;99156.31;5042964;28;20524;-75
2023/07/31 07:52:22;;;;;;;881.17;810.40;;;;;;;17.87;90.56;99161.16;5043071;28;20041;-75
2023/07/31 07:54:47;;;;;;;896.47;822.40;;;;;;;17.68;90.81;99154.06;5043742;28;20029;-75
2023/07/31 07:57:12;;;;;;;1000.27;903.77;;;;;;;17.71;91.10;99142.41;5043006;28;20270;-74
2023/07/31 07:59:37;;;;;;;830.97;767.70;;;;;;;17.79;90.48;99152.59;5042806;28;20332;-76
2023/07/31 08:02:03;;;;;;;809.97;747.57;;;;;;;17.85;90.13;99154.03;5042991;28;20095;-75
2023/07/31 08:04:28;;;;;;;862.75;796.42;;;;;;;17.90;90.26;99155.78;5042424;28;20270;-74
2023/07/31 08:06:54;;;;;;;758.25;700.88;;;;;;;18.08;89.55;99159.28;5043158;28;20040;-75
2023/07/31 08:09:19;;;;;;;832.50;764.28;;;;;;;17.85;89.71;99151.28;5041806;28;20044;-71
2023/07/31 08:11:44;;;;;;;803.60;744.67;;;;;;;17.77;90.85;99152.13;5042756;28;20036;-72
2023/07/31 08:14:09;;;;;;;800.90;739.47;;;;;;;17.97;90.34;99149.78;5042120;28;20722;-73
2023/07/31 08:16:35;;;;;;;789.43;734.03;;;;;;;18.18;89.87;99151.84;5042748;28;20262;-73
2023/07/31 08:19:00;;;;;;;843.85;779.47;;;;;;;18.27;89.35;99147.06;5042192;28;20770;-75
2023/07/31 08:21:25;;;;;;;812.37;751.73;;;;;;;18.06;89.88;99147.78;5042830;28;20115;-75
2023/07/31 08:23:50;;;;;;;802.80;742.58;;;;;;;18.17;89.61;99150.22;5042711;28;20833;-75
2023/07/31 08:26:17;;;;;;;839.40;774.53;;;;;;;18.01;90.37;99145.22;5042058;28;20086;-76
2023/07/31 08:28:42;;;;;;;880.53;814.10;;;;;;;18.05;90.76;99137.09;5041514;28;20048;-75
2023/07/31 08:31:07;;;;;;;811.15;750.78;;;;;;;18.02;90.66;99138.56;5042254;28;20041;-74
2023/07/31 08:33:33;;;;;;;993.03;894.07;;;;;;;17.97;91.02;99141.50;5042254;28;20245;-75
2023/07/31 08:35:59;;;;;;;834.30;771.97;;;;;;;17.95;91.57;99141.03;5042761;28;20887;-74
2023/07/31 08:38:25;;;;;;;913.55;837.58;;;;;;;17.95;91.01;99133.56;5045237;28;20273;-75
2023/07/31 08:40:50;;;;;;;919.33;836.22;;;;;;;17.85;91.49;99136.69;5044981;28;20044;-77
2023/07/31 08:43:16;;;;;;;792.67;732.95;;;;;;;17.85;91.26;99133.91;5045014;28;20041;-76
2023/07/31 08:45:42;;;;;;;763.90;706.70;;;;;;;17.78;91.85;99133.59;5046016;28;20853;-76
2023/07/31 08:48:07;;;;;;;971.28;873.60;;;;;;;17.67;91.69;99125.72;5045716;28;20383;-75
2023/07/31 08:50:33;;;;;;;743.80;689.85;;;;;;;17.73;91.86;99132.66;5045337;28;20044;-76
2023/07/31 08:52:58;;;;;;;783.65;725.30;;;;;;;17.95;91.33;99138.25;5045674;28;20091;-77
2023/07/31 08:55:24;;;;;;;773.97;715.97;;;;;;;17.88;91.08;99130.50;5046184;28;20032;-78
2023/07/31 08:57:54;;;;;;;782.40;726.42;;;;;;;17.98;91.30;99123.81;5045924;28;20286;-76
2023/07/31 09:00:21;;;;;;;760.47;702.67;;;;;;;18.04;91.27;99128.00;5045125;28;20588;-77
2023/07/31 09:02:53;;;;;;;852.33;784.25;;;;;;;17.88;91.16;99124.19;5045495;28;20052;-76
2023/07/31 09:05:19;;;;;;;831.45;769.00;;;;;;;17.93;91.35;99132.28;5045731;28;20033;-76
2023/07/31 09:07:47;;;;;;;919.33;843.42;;;;;;;18.00;90.81;99131.78;5046104;28;20091;-76
2023/07/31 09:10:12;;;;;;;795.35;737.65;;;;;;;17.95;91.19;99119.78;5044904;28;20140;-75
2023/07/31 09:12:38;;;;;;;826.92;763.03;;;;;;;18.12;90.97;99114.53;5045946;28;20155;-75
2023/07/31 09:15:04;;;;;;;855.17;788.80;;;;;;;18.30;90.31;99118.84;5045137;28;20048;-75
2023/07/31 09:17:34;;;;;;;844.50;780.50;;;;;;;18.20;90.63;99125.53;5045265;28;20064;-73
2023/07/31 09:20:12;;;;;;;921.80;839.42;;;;;;;18.04;90.50;99127.22;5044992;28;20053;-71
2023/07/31 09:22:39;;;;;;;890.58;816.85;;;;;;;18.07;90.75;99134.81;5044882;28;20041;-71
2023/07/31 09:25:21;;;;;;;869.13;802.97;;;;;;;18.00;91.09;99132.56;5044457;28;20052;-71
2023/07/31 09:27:53;;;;;;;878.13;807.05;;;;;;;18.03;91.11;99136.59;5045149;28;20086;-74
2023/07/31 09:30:19;;;;;;;841.92;780.15;;;;;;;17.91;91.71;99132.59;5044289;28;20048;-74
2023/07/31 09:32:45;;;;;;;959.63;876.17;;;;;;;17.84;91.43;99129.53;5044955;28;20072;-75
2023/07/31 09:35:22;;;;;;;773.50;712.10;;;;;;;17.99;91.31;99125.44;5044419;28;20094;-77
2023/07/31 09:37:52;;;;;;;816.22;756.92;;;;;;;18.11;91.07;99121.97;5044930;28;20033;-75
2023/07/31 09:40:31;;;;;;;911.78;840.15;;;;;;;18.10;90.74;99112.09;5043866;28;20084;-76
2023/07/31 09:43:07;;;;;;;839.67;775.33;;;;;;;18.11;90.88;99115.66;5045186;28;20086;-75
2023/07/31 09:45:37;;;;;;;913.75;839.80;;;;;;;18.28;89.82;99115.59;5044601;28;20037;-76
2023/07/31 09:48:06;;;;;;;914.03;840.90;;;;;;;18.23;90.33;99118.53;5044768;28;20158;-74
2023/07/31 09:50:31;;;;;;;844.72;780.53;;;;;;;18.18;91.25;99116.78;5025661;28;20059;-76
2023/07/31 09:52:56;;;;;;;905.03;829.90;;;;;;;18.21;90.98;99104.28;5044452;28;20401;-75
2023/07/31 09:55:22;;;;;;;857.20;789.97;;;;;;;18.40;91.01;99105.78;5044224;28;20270;-75
2023/07/31 09:57:48;;;;;;;979.03;903.57;;;;;;;18.44;90.24;99101.22;5044769;28;20272;-75
2023/07/31 10:00:17;;;;;;;877.33;806.72;;;;;;;18.35;91.03;99108.72;5043893;28;20278;-75
2023/07/31 10:02:46;;;;;;;938.72;854.85;;;;;;;18.43;90.50;99107.88;5044059;28;20146;-75
2023/07/31 10:05:13;;;;;;;908.15;839.03;;;;;;;18.36;90.91;99105.66;5044086;28;20202;-75
2023/07/31 10:07:41;;;;;;;831.58;769.03;;;;;;;18.35;90.80;99098.50;5043983;28;20037;-75
2023/07/31 10:10:08;;;;;;;821.65;761.17;;;;;;;18.58;90.59;99105.66;5043646;28;20056;-75
2023/07/31 10:12:35;;;;;;;816.50;755.45;;;;;;;18.63;90.02;99109.03;5044327;28;20072;-75
2023/07/31 10:15:01;;;;;;;912.78;842.65;;;;;;;18.58;90.34;99100.97;5043881;28;20043;-76
2023/07/31 10:17:26;;;;;;;813.88;752.47;;;;;;;18.83;89.62;99095.59;5044016;28;20478;-75
2023/07/31 10:19:53;;;;;;;821.53;760.90;;;;;;;18.74;89.69;99086.56;5043513;28;20506;-75
2023/07/31 10:22:20;;;;;;;861.72;795.78;;;;;;;18.57;90.04;99099.34;5044036;28;20082;-75
2023/07/31 10:24:46;;;;;;;822.58;759.70;;;;;;;18.48;89.97;99098.59;5044362;28;20045;-75
2023/07/31 10:27:12;;;;;;;943.25;864.97;;;;;;;18.49;90.08;99098.25;5044278;28;20055;-76
2023/07/31 10:29:39;;;;;;;861.60;795.08;;;;;;;18.49;90.40;99092.75;5043735;28;20040;-76
2023/07/31 10:32:09;;;;;;;881.97;812.85;;;;;;;18.63;90.18;99098.00;5043548;28;20044;-76
2023/07/31 10:34:35;;;;;;;865.53;801.88;;;;;;;18.61;90.72;99094.75;5044019;28;20051;-75
2023/07/31 10:37:21;;;;;;;931.78;860.67;;;;;;;18.77;90.20;99092.22;5043442;28;20482;-77
2023/07/31 10:39:55;;;;;;;831.80;770.00;;;;;;;18.58;90.10;99092.69;5043599;28;20593;-76
2023/07/31 10:42:27;;;;;;;850.95;786.90;;;;;;;18.18;91.65;99083.66;5043551;28;20040;-76
2023/07/31 10:44:57;;;;;;;800.35;740.83;;;;;;;18.23;92.44;99090.94;5043673;28;20041;-75
2023/07/31 10:47:22;;;;;;;932.28;857.78;;;;;;;18.16;91.77;99090.66;5043414;28;20570;-76
2023/07/31 10:49:48;;;;;;;785.20;728.00;;;;;;;18.40;91.70;99094.75;5042800;28;20119;-77
2023/07/31 10:52:22;;;;;;;935.28;856.47;;;;;;;18.26;91.86;99098.56;5043341;28;20036;-76
2023/07/31 10:54:48;;;;;;;822.47;760.65;;;;;;;18.23;91.97;99090.13;5043475;28;20049;-75
2023/07/31 10:57:20;;;;;;;1023.92;933.70;;;;;;;18.23;91.59;99096.47;5042880;28;20126;-76
2023/07/31 10:59:45;;;;;;;879.15;813.05;;;;;;;18.24;91.86;99092.59;5042229;28;20513;-76